<?xml version="1.0" encoding="UTF-8" standalone="no" ?>
<gpx xmlns="http://www.topografix.com/GPX/1/1" xmlns:xsi="http://www.w3.org/2001/XMLSchema-instance" xsi:schemaLocation="http://www.topografix.com/GPX/1/1 http://www.topografix.com/GPX/1/1/gpx.xsd" version="1.1" creator="VisuGPX - https://www.visugpx.com">
  <metadata>
    <name>20200625 - Les etoquies</name>
  </metadata>
  <trk>
    <name><![CDATA[2020-06-25 20:21:12]]></name>
    <trkseg>
      <trkpt lat="50.12498" lon="3.67813">
        <ele>88.1</ele>
        <time>2020-06-25T17:54:58Z</time>
      </trkpt>
      <trkpt lat="50.12499" lon="3.67814">
        <ele>88.1</ele>
        <time>2020-06-25T17:54:59Z</time>
      </trkpt>
      <trkpt lat="50.12502" lon="3.67818">
        <ele>91.46</ele>
        <time>2020-06-25T17:55:02Z</time>
      </trkpt>
      <trkpt lat="50.12504" lon="3.6782">
        <ele>91.46</ele>
        <time>2020-06-25T17:55:03Z</time>
      </trkpt>
      <trkpt lat="50.12521" lon="3.67842">
        <ele>91.46</ele>
        <time>2020-06-25T17:55:15Z</time>
      </trkpt>
      <trkpt lat="50.12537" lon="3.67875">
        <ele>91.46</ele>
        <time>2020-06-25T17:55:28Z</time>
      </trkpt>
      <trkpt lat="50.12554" lon="3.67888">
        <ele>91.94</ele>
        <time>2020-06-25T17:55:41Z</time>
      </trkpt>
      <trkpt lat="50.12555" lon="3.67883">
        <ele>91.94</ele>
        <time>2020-06-25T17:55:45Z</time>
      </trkpt>
      <trkpt lat="50.12554" lon="3.67884">
        <ele>91.94</ele>
        <time>2020-06-25T17:55:46Z</time>
      </trkpt>
      <trkpt lat="50.12554" lon="3.67885">
        <ele>91.94</ele>
        <time>2020-06-25T17:55:47Z</time>
      </trkpt>
      <trkpt lat="50.12554" lon="3.67887">
        <ele>91.94</ele>
        <time>2020-06-25T17:55:48Z</time>
      </trkpt>
      <trkpt lat="50.12555" lon="3.67889">
        <ele>91.94</ele>
        <time>2020-06-25T17:55:49Z</time>
      </trkpt>
      <trkpt lat="50.12556" lon="3.6789">
        <ele>91.94</ele>
        <time>2020-06-25T17:55:50Z</time>
      </trkpt>
      <trkpt lat="50.12556" lon="3.67892">
        <ele>91.94</ele>
        <time>2020-06-25T17:55:51Z</time>
      </trkpt>
      <trkpt lat="50.12561" lon="3.67897">
        <ele>91.94</ele>
        <time>2020-06-25T17:55:57Z</time>
      </trkpt>
      <trkpt lat="50.12568" lon="3.67904">
        <ele>92.42</ele>
        <time>2020-06-25T17:56:03Z</time>
      </trkpt>
      <trkpt lat="50.12569" lon="3.67906">
        <ele>92.42</ele>
        <time>2020-06-25T17:56:04Z</time>
      </trkpt>
      <trkpt lat="50.12572" lon="3.67909">
        <ele>92.42</ele>
        <time>2020-06-25T17:56:05Z</time>
      </trkpt>
      <trkpt lat="50.12574" lon="3.67913">
        <ele>92.42</ele>
        <time>2020-06-25T17:56:06Z</time>
      </trkpt>
      <trkpt lat="50.12577" lon="3.67917">
        <ele>92.42</ele>
        <time>2020-06-25T17:56:07Z</time>
      </trkpt>
      <trkpt lat="50.12622" lon="3.67999">
        <ele>92.9</ele>
        <time>2020-06-25T17:56:23Z</time>
      </trkpt>
      <trkpt lat="50.12681" lon="3.68129">
        <ele>92.9</ele>
        <time>2020-06-25T17:56:43Z</time>
      </trkpt>
      <trkpt lat="50.12724" lon="3.68223">
        <ele>94.83</ele>
        <time>2020-06-25T17:56:59Z</time>
      </trkpt>
      <trkpt lat="50.12735" lon="3.68257">
        <ele>94.83</ele>
        <time>2020-06-25T17:57:04Z</time>
      </trkpt>
      <trkpt lat="50.12737" lon="3.68264">
        <ele>94.83</ele>
        <time>2020-06-25T17:57:05Z</time>
      </trkpt>
      <trkpt lat="50.12781" lon="3.68391">
        <ele>95.79</ele>
        <time>2020-06-25T17:57:23Z</time>
      </trkpt>
      <trkpt lat="50.12796" lon="3.68441">
        <ele>96.27</ele>
        <time>2020-06-25T17:57:31Z</time>
      </trkpt>
      <trkpt lat="50.12795" lon="3.68447">
        <ele>96.27</ele>
        <time>2020-06-25T17:57:32Z</time>
      </trkpt>
      <trkpt lat="50.12792" lon="3.68452">
        <ele>96.27</ele>
        <time>2020-06-25T17:57:33Z</time>
      </trkpt>
      <trkpt lat="50.12788" lon="3.68455">
        <ele>96.27</ele>
        <time>2020-06-25T17:57:34Z</time>
      </trkpt>
      <trkpt lat="50.12784" lon="3.68457">
        <ele>96.27</ele>
        <time>2020-06-25T17:57:35Z</time>
      </trkpt>
      <trkpt lat="50.1278" lon="3.6846">
        <ele>96.27</ele>
        <time>2020-06-25T17:57:36Z</time>
      </trkpt>
      <trkpt lat="50.12775" lon="3.68463">
        <ele>96.27</ele>
        <time>2020-06-25T17:57:37Z</time>
      </trkpt>
      <trkpt lat="50.12771" lon="3.68467">
        <ele>96.27</ele>
        <time>2020-06-25T17:57:38Z</time>
      </trkpt>
      <trkpt lat="50.12767" lon="3.68471">
        <ele>96.27</ele>
        <time>2020-06-25T17:57:39Z</time>
      </trkpt>
      <trkpt lat="50.12762" lon="3.68475">
        <ele>96.27</ele>
        <time>2020-06-25T17:57:40Z</time>
      </trkpt>
      <trkpt lat="50.12758" lon="3.68478">
        <ele>96.27</ele>
        <time>2020-06-25T17:57:41Z</time>
      </trkpt>
      <trkpt lat="50.12735" lon="3.68498">
        <ele>95.31</ele>
        <time>2020-06-25T17:57:46Z</time>
      </trkpt>
      <trkpt lat="50.12732" lon="3.68506">
        <ele>94.83</ele>
        <time>2020-06-25T17:57:47Z</time>
      </trkpt>
      <trkpt lat="50.12732" lon="3.68515">
        <ele>94.83</ele>
        <time>2020-06-25T17:57:48Z</time>
      </trkpt>
      <trkpt lat="50.12734" lon="3.68522">
        <ele>94.83</ele>
        <time>2020-06-25T17:57:49Z</time>
      </trkpt>
      <trkpt lat="50.12737" lon="3.68527">
        <ele>94.83</ele>
        <time>2020-06-25T17:57:50Z</time>
      </trkpt>
      <trkpt lat="50.12741" lon="3.68533">
        <ele>94.83</ele>
        <time>2020-06-25T17:57:51Z</time>
      </trkpt>
      <trkpt lat="50.12745" lon="3.68539">
        <ele>94.83</ele>
        <time>2020-06-25T17:57:52Z</time>
      </trkpt>
      <trkpt lat="50.12748" lon="3.68545">
        <ele>94.83</ele>
        <time>2020-06-25T17:57:53Z</time>
      </trkpt>
      <trkpt lat="50.12751" lon="3.68552">
        <ele>94.83</ele>
        <time>2020-06-25T17:57:54Z</time>
      </trkpt>
      <trkpt lat="50.12751" lon="3.6856">
        <ele>94.83</ele>
        <time>2020-06-25T17:57:55Z</time>
      </trkpt>
      <trkpt lat="50.1275" lon="3.68568">
        <ele>94.83</ele>
        <time>2020-06-25T17:57:56Z</time>
      </trkpt>
      <trkpt lat="50.12747" lon="3.68574">
        <ele>95.31</ele>
        <time>2020-06-25T17:57:57Z</time>
      </trkpt>
      <trkpt lat="50.12743" lon="3.6858">
        <ele>95.31</ele>
        <time>2020-06-25T17:57:58Z</time>
      </trkpt>
      <trkpt lat="50.12739" lon="3.68586">
        <ele>95.31</ele>
        <time>2020-06-25T17:57:59Z</time>
      </trkpt>
      <trkpt lat="50.12705" lon="3.68649">
        <ele>94.83</ele>
        <time>2020-06-25T17:58:09Z</time>
      </trkpt>
      <trkpt lat="50.12704" lon="3.68658">
        <ele>94.83</ele>
        <time>2020-06-25T17:58:10Z</time>
      </trkpt>
      <trkpt lat="50.12706" lon="3.68663">
        <ele>94.83</ele>
        <time>2020-06-25T17:58:11Z</time>
      </trkpt>
      <trkpt lat="50.12736" lon="3.68704">
        <ele>95.31</ele>
        <time>2020-06-25T17:58:21Z</time>
      </trkpt>
      <trkpt lat="50.12742" lon="3.68699">
        <ele>95.31</ele>
        <time>2020-06-25T17:58:23Z</time>
      </trkpt>
      <trkpt lat="50.12745" lon="3.68695">
        <ele>95.31</ele>
        <time>2020-06-25T17:58:24Z</time>
      </trkpt>
      <trkpt lat="50.12763" lon="3.68669">
        <ele>95.31</ele>
        <time>2020-06-25T17:58:30Z</time>
      </trkpt>
      <trkpt lat="50.12786" lon="3.68638">
        <ele>95.79</ele>
        <time>2020-06-25T17:58:37Z</time>
      </trkpt>
      <trkpt lat="50.12788" lon="3.68633">
        <ele>95.79</ele>
        <time>2020-06-25T17:58:38Z</time>
      </trkpt>
      <trkpt lat="50.1279" lon="3.68628">
        <ele>95.79</ele>
        <time>2020-06-25T17:58:39Z</time>
      </trkpt>
      <trkpt lat="50.12792" lon="3.68623">
        <ele>97.23</ele>
        <time>2020-06-25T17:58:40Z</time>
      </trkpt>
      <trkpt lat="50.12795" lon="3.68619">
        <ele>97.23</ele>
        <time>2020-06-25T17:58:41Z</time>
      </trkpt>
      <trkpt lat="50.12813" lon="3.6858">
        <ele>97.71</ele>
        <time>2020-06-25T17:58:48Z</time>
      </trkpt>
      <trkpt lat="50.12832" lon="3.68494">
        <ele>101.56</ele>
        <time>2020-06-25T17:59:02Z</time>
      </trkpt>
      <trkpt lat="50.12838" lon="3.68464">
        <ele>102.04</ele>
        <time>2020-06-25T17:59:07Z</time>
      </trkpt>
      <trkpt lat="50.12839" lon="3.68458">
        <ele>103</ele>
        <time>2020-06-25T17:59:08Z</time>
      </trkpt>
      <trkpt lat="50.12863" lon="3.68395">
        <ele>105.4</ele>
        <time>2020-06-25T17:59:23Z</time>
      </trkpt>
      <trkpt lat="50.12895" lon="3.68351">
        <ele>107.81</ele>
        <time>2020-06-25T17:59:38Z</time>
      </trkpt>
      <trkpt lat="50.12939" lon="3.68322">
        <ele>106.84</ele>
        <time>2020-06-25T17:59:48Z</time>
      </trkpt>
      <trkpt lat="50.12966" lon="3.68316">
        <ele>105.88</ele>
        <time>2020-06-25T17:59:52Z</time>
      </trkpt>
      <trkpt lat="50.12971" lon="3.68315">
        <ele>105.88</ele>
        <time>2020-06-25T17:59:53Z</time>
      </trkpt>
      <trkpt lat="50.12978" lon="3.68314">
        <ele>105.88</ele>
        <time>2020-06-25T17:59:54Z</time>
      </trkpt>
      <trkpt lat="50.12985" lon="3.68312">
        <ele>105.88</ele>
        <time>2020-06-25T17:59:55Z</time>
      </trkpt>
      <trkpt lat="50.1299" lon="3.6831">
        <ele>105.88</ele>
        <time>2020-06-25T17:59:56Z</time>
      </trkpt>
      <trkpt lat="50.13026" lon="3.683">
        <ele>107.32</ele>
        <time>2020-06-25T18:00:03Z</time>
      </trkpt>
      <trkpt lat="50.13064" lon="3.68286">
        <ele>110.21</ele>
        <time>2020-06-25T18:00:14Z</time>
      </trkpt>
      <trkpt lat="50.13096" lon="3.68272">
        <ele>113.09</ele>
        <time>2020-06-25T18:00:25Z</time>
      </trkpt>
      <trkpt lat="50.13127" lon="3.68256">
        <ele>114.53</ele>
        <time>2020-06-25T18:00:36Z</time>
      </trkpt>
      <trkpt lat="50.13164" lon="3.68227">
        <ele>117.9</ele>
        <time>2020-06-25T18:00:49Z</time>
      </trkpt>
      <trkpt lat="50.132" lon="3.6819">
        <ele>119.82</ele>
        <time>2020-06-25T18:01:02Z</time>
      </trkpt>
      <trkpt lat="50.13202" lon="3.68188">
        <ele>119.82</ele>
        <time>2020-06-25T18:01:03Z</time>
      </trkpt>
      <trkpt lat="50.13206" lon="3.68189">
        <ele>120.3</ele>
        <time>2020-06-25T18:01:04Z</time>
      </trkpt>
      <trkpt lat="50.13209" lon="3.68193">
        <ele>120.3</ele>
        <time>2020-06-25T18:01:05Z</time>
      </trkpt>
      <trkpt lat="50.1321" lon="3.68196">
        <ele>120.3</ele>
        <time>2020-06-25T18:01:06Z</time>
      </trkpt>
      <trkpt lat="50.13212" lon="3.682">
        <ele>120.3</ele>
        <time>2020-06-25T18:01:07Z</time>
      </trkpt>
      <trkpt lat="50.13234" lon="3.68254">
        <ele>121.74</ele>
        <time>2020-06-25T18:01:20Z</time>
      </trkpt>
      <trkpt lat="50.13272" lon="3.68303">
        <ele>121.74</ele>
        <time>2020-06-25T18:01:34Z</time>
      </trkpt>
      <trkpt lat="50.13331" lon="3.68342">
        <ele>122.22</ele>
        <time>2020-06-25T18:01:51Z</time>
      </trkpt>
      <trkpt lat="50.13343" lon="3.6835">
        <ele>122.22</ele>
        <time>2020-06-25T18:01:54Z</time>
      </trkpt>
      <trkpt lat="50.13347" lon="3.68352">
        <ele>122.22</ele>
        <time>2020-06-25T18:01:55Z</time>
      </trkpt>
      <trkpt lat="50.13376" lon="3.6837">
        <ele>122.22</ele>
        <time>2020-06-25T18:02:02Z</time>
      </trkpt>
      <trkpt lat="50.1346" lon="3.6841">
        <ele>122.71</ele>
        <time>2020-06-25T18:02:21Z</time>
      </trkpt>
      <trkpt lat="50.13495" lon="3.68433">
        <ele>123.67</ele>
        <time>2020-06-25T18:02:30Z</time>
      </trkpt>
      <trkpt lat="50.13498" lon="3.68437">
        <ele>123.67</ele>
        <time>2020-06-25T18:02:31Z</time>
      </trkpt>
      <trkpt lat="50.1353" lon="3.6847">
        <ele>125.11</ele>
        <time>2020-06-25T18:02:40Z</time>
      </trkpt>
      <trkpt lat="50.13573" lon="3.68523">
        <ele>127.03</ele>
        <time>2020-06-25T18:02:54Z</time>
      </trkpt>
      <trkpt lat="50.13606" lon="3.68556">
        <ele>129.43</ele>
        <time>2020-06-25T18:03:07Z</time>
      </trkpt>
      <trkpt lat="50.13654" lon="3.68583">
        <ele>128.47</ele>
        <time>2020-06-25T18:03:19Z</time>
      </trkpt>
      <trkpt lat="50.1376" lon="3.6864">
        <ele>127.51</ele>
        <time>2020-06-25T18:03:37Z</time>
      </trkpt>
      <trkpt lat="50.13835" lon="3.68671">
        <ele>127.99</ele>
        <time>2020-06-25T18:03:52Z</time>
      </trkpt>
      <trkpt lat="50.13892" lon="3.68694">
        <ele>129.43</ele>
        <time>2020-06-25T18:04:06Z</time>
      </trkpt>
      <trkpt lat="50.13944" lon="3.68725">
        <ele>131.36</ele>
        <time>2020-06-25T18:04:21Z</time>
      </trkpt>
      <trkpt lat="50.1396" lon="3.68737">
        <ele>132.32</ele>
        <time>2020-06-25T18:04:26Z</time>
      </trkpt>
      <trkpt lat="50.13961" lon="3.68743">
        <ele>132.32</ele>
        <time>2020-06-25T18:04:27Z</time>
      </trkpt>
      <trkpt lat="50.13961" lon="3.6875">
        <ele>132.32</ele>
        <time>2020-06-25T18:04:28Z</time>
      </trkpt>
      <trkpt lat="50.13958" lon="3.68804">
        <ele>133.28</ele>
        <time>2020-06-25T18:04:35Z</time>
      </trkpt>
      <trkpt lat="50.13949" lon="3.68943">
        <ele>134.72</ele>
        <time>2020-06-25T18:04:53Z</time>
      </trkpt>
      <trkpt lat="50.13945" lon="3.69018">
        <ele>133.28</ele>
        <time>2020-06-25T18:05:02Z</time>
      </trkpt>
      <trkpt lat="50.13944" lon="3.69028">
        <ele>132.32</ele>
        <time>2020-06-25T18:05:03Z</time>
      </trkpt>
      <trkpt lat="50.13932" lon="3.69102">
        <ele>131.36</ele>
        <time>2020-06-25T18:05:10Z</time>
      </trkpt>
      <trkpt lat="50.13931" lon="3.69113">
        <ele>130.88</ele>
        <time>2020-06-25T18:05:11Z</time>
      </trkpt>
      <trkpt lat="50.13932" lon="3.69124">
        <ele>130.4</ele>
        <time>2020-06-25T18:05:12Z</time>
      </trkpt>
      <trkpt lat="50.13934" lon="3.69268">
        <ele>129.92</ele>
        <time>2020-06-25T18:05:27Z</time>
      </trkpt>
      <trkpt lat="50.1392" lon="3.69332">
        <ele>130.4</ele>
        <time>2020-06-25T18:05:38Z</time>
      </trkpt>
      <trkpt lat="50.13914" lon="3.69367">
        <ele>129.92</ele>
        <time>2020-06-25T18:05:42Z</time>
      </trkpt>
      <trkpt lat="50.13903" lon="3.69474">
        <ele>127.99</ele>
        <time>2020-06-25T18:05:55Z</time>
      </trkpt>
      <trkpt lat="50.13903" lon="3.69474">
        <ele>127.99</ele>
        <time>2020-06-25T18:06:09Z</time>
      </trkpt>
      <trkpt lat="50.13903" lon="3.69477">
        <ele>128.47</ele>
        <time>2020-06-25T18:06:10Z</time>
      </trkpt>
      <trkpt lat="50.13903" lon="3.69481">
        <ele>128.47</ele>
        <time>2020-06-25T18:06:11Z</time>
      </trkpt>
      <trkpt lat="50.13895" lon="3.69549">
        <ele>127.99</ele>
        <time>2020-06-25T18:06:21Z</time>
      </trkpt>
      <trkpt lat="50.1387" lon="3.69714">
        <ele>127.51</ele>
        <time>2020-06-25T18:06:40Z</time>
      </trkpt>
      <trkpt lat="50.13868" lon="3.69721">
        <ele>127.51</ele>
        <time>2020-06-25T18:06:41Z</time>
      </trkpt>
      <trkpt lat="50.13869" lon="3.69748">
        <ele>126.55</ele>
        <time>2020-06-25T18:06:49Z</time>
      </trkpt>
      <trkpt lat="50.1387" lon="3.69794">
        <ele>126.07</ele>
        <time>2020-06-25T18:06:56Z</time>
      </trkpt>
      <trkpt lat="50.13867" lon="3.69843">
        <ele>125.59</ele>
        <time>2020-06-25T18:07:02Z</time>
      </trkpt>
      <trkpt lat="50.1386" lon="3.69883">
        <ele>125.11</ele>
        <time>2020-06-25T18:07:07Z</time>
      </trkpt>
      <trkpt lat="50.13853" lon="3.69916">
        <ele>124.63</ele>
        <time>2020-06-25T18:07:11Z</time>
      </trkpt>
      <trkpt lat="50.13837" lon="3.7003">
        <ele>121.26</ele>
        <time>2020-06-25T18:07:22Z</time>
      </trkpt>
      <trkpt lat="50.13836" lon="3.70042">
        <ele>121.26</ele>
        <time>2020-06-25T18:07:23Z</time>
      </trkpt>
      <trkpt lat="50.13834" lon="3.70076">
        <ele>120.78</ele>
        <time>2020-06-25T18:07:26Z</time>
      </trkpt>
      <trkpt lat="50.13835" lon="3.70087">
        <ele>119.82</ele>
        <time>2020-06-25T18:07:27Z</time>
      </trkpt>
      <trkpt lat="50.13838" lon="3.70099">
        <ele>119.82</ele>
        <time>2020-06-25T18:07:28Z</time>
      </trkpt>
      <trkpt lat="50.13851" lon="3.70141">
        <ele>118.86</ele>
        <time>2020-06-25T18:07:32Z</time>
      </trkpt>
      <trkpt lat="50.13852" lon="3.70152">
        <ele>118.86</ele>
        <time>2020-06-25T18:07:33Z</time>
      </trkpt>
      <trkpt lat="50.1385" lon="3.70163">
        <ele>118.38</ele>
        <time>2020-06-25T18:07:34Z</time>
      </trkpt>
      <trkpt lat="50.13847" lon="3.70174">
        <ele>117.42</ele>
        <time>2020-06-25T18:07:35Z</time>
      </trkpt>
      <trkpt lat="50.13844" lon="3.70185">
        <ele>117.42</ele>
        <time>2020-06-25T18:07:36Z</time>
      </trkpt>
      <trkpt lat="50.13826" lon="3.70239">
        <ele>116.46</ele>
        <time>2020-06-25T18:07:41Z</time>
      </trkpt>
      <trkpt lat="50.13822" lon="3.7025">
        <ele>115.98</ele>
        <time>2020-06-25T18:07:42Z</time>
      </trkpt>
      <trkpt lat="50.138" lon="3.70311">
        <ele>115.01</ele>
        <time>2020-06-25T18:07:48Z</time>
      </trkpt>
      <trkpt lat="50.13795" lon="3.70319">
        <ele>115.01</ele>
        <time>2020-06-25T18:07:49Z</time>
      </trkpt>
      <trkpt lat="50.13789" lon="3.70325">
        <ele>114.05</ele>
        <time>2020-06-25T18:07:50Z</time>
      </trkpt>
      <trkpt lat="50.13776" lon="3.70337">
        <ele>114.05</ele>
        <time>2020-06-25T18:07:52Z</time>
      </trkpt>
      <trkpt lat="50.1377" lon="3.70344">
        <ele>113.09</ele>
        <time>2020-06-25T18:07:53Z</time>
      </trkpt>
      <trkpt lat="50.13764" lon="3.70354">
        <ele>113.09</ele>
        <time>2020-06-25T18:07:54Z</time>
      </trkpt>
      <trkpt lat="50.13729" lon="3.70423">
        <ele>111.65</ele>
        <time>2020-06-25T18:08:02Z</time>
      </trkpt>
      <trkpt lat="50.13725" lon="3.70423">
        <ele>112.13</ele>
        <time>2020-06-25T18:08:03Z</time>
      </trkpt>
      <trkpt lat="50.13722" lon="3.70419">
        <ele>112.13</ele>
        <time>2020-06-25T18:08:04Z</time>
      </trkpt>
      <trkpt lat="50.1372" lon="3.70412">
        <ele>112.13</ele>
        <time>2020-06-25T18:08:05Z</time>
      </trkpt>
      <trkpt lat="50.13718" lon="3.70406">
        <ele>112.13</ele>
        <time>2020-06-25T18:08:06Z</time>
      </trkpt>
      <trkpt lat="50.13699" lon="3.70337">
        <ele>113.57</ele>
        <time>2020-06-25T18:08:16Z</time>
      </trkpt>
      <trkpt lat="50.13686" lon="3.70292">
        <ele>115.01</ele>
        <time>2020-06-25T18:08:23Z</time>
      </trkpt>
      <trkpt lat="50.13662" lon="3.70201">
        <ele>117.42</ele>
        <time>2020-06-25T18:08:39Z</time>
      </trkpt>
      <trkpt lat="50.13652" lon="3.70157">
        <ele>118.86</ele>
        <time>2020-06-25T18:08:47Z</time>
      </trkpt>
      <trkpt lat="50.13646" lon="3.70131">
        <ele>119.82</ele>
        <time>2020-06-25T18:08:51Z</time>
      </trkpt>
      <trkpt lat="50.13644" lon="3.70125">
        <ele>119.82</ele>
        <time>2020-06-25T18:08:52Z</time>
      </trkpt>
      <trkpt lat="50.13631" lon="3.70098">
        <ele>121.26</ele>
        <time>2020-06-25T18:08:58Z</time>
      </trkpt>
      <trkpt lat="50.13629" lon="3.70093">
        <ele>121.74</ele>
        <time>2020-06-25T18:08:59Z</time>
      </trkpt>
      <trkpt lat="50.13621" lon="3.70078">
        <ele>122.22</ele>
        <time>2020-06-25T18:09:02Z</time>
      </trkpt>
      <trkpt lat="50.13618" lon="3.70073">
        <ele>122.71</ele>
        <time>2020-06-25T18:09:03Z</time>
      </trkpt>
      <trkpt lat="50.13599" lon="3.70027">
        <ele>123.67</ele>
        <time>2020-06-25T18:09:13Z</time>
      </trkpt>
      <trkpt lat="50.13568" lon="3.69925">
        <ele>123.67</ele>
        <time>2020-06-25T18:09:28Z</time>
      </trkpt>
      <trkpt lat="50.13531" lon="3.69775">
        <ele>123.67</ele>
        <time>2020-06-25T18:09:46Z</time>
      </trkpt>
      <trkpt lat="50.13505" lon="3.69696">
        <ele>124.15</ele>
        <time>2020-06-25T18:09:57Z</time>
      </trkpt>
      <trkpt lat="50.13462" lon="3.69601">
        <ele>125.11</ele>
        <time>2020-06-25T18:10:14Z</time>
      </trkpt>
      <trkpt lat="50.1342" lon="3.69498">
        <ele>125.59</ele>
        <time>2020-06-25T18:10:30Z</time>
      </trkpt>
      <trkpt lat="50.13417" lon="3.69491">
        <ele>125.59</ele>
        <time>2020-06-25T18:10:31Z</time>
      </trkpt>
      <trkpt lat="50.13413" lon="3.69479">
        <ele>125.59</ele>
        <time>2020-06-25T18:10:33Z</time>
      </trkpt>
      <trkpt lat="50.13411" lon="3.69472">
        <ele>125.59</ele>
        <time>2020-06-25T18:10:34Z</time>
      </trkpt>
      <trkpt lat="50.13384" lon="3.69382">
        <ele>127.03</ele>
        <time>2020-06-25T18:10:49Z</time>
      </trkpt>
      <trkpt lat="50.13354" lon="3.69278">
        <ele>126.07</ele>
        <time>2020-06-25T18:11:02Z</time>
      </trkpt>
      <trkpt lat="50.13307" lon="3.69109">
        <ele>122.71</ele>
        <time>2020-06-25T18:11:17Z</time>
      </trkpt>
      <trkpt lat="50.1325" lon="3.69014">
        <ele>122.71</ele>
        <time>2020-06-25T18:11:28Z</time>
      </trkpt>
      <trkpt lat="50.13161" lon="3.68889">
        <ele>121.26</ele>
        <time>2020-06-25T18:11:43Z</time>
      </trkpt>
      <trkpt lat="50.13103" lon="3.68803">
        <ele>117.9</ele>
        <time>2020-06-25T18:11:52Z</time>
      </trkpt>
      <trkpt lat="50.13032" lon="3.68653">
        <ele>115.5</ele>
        <time>2020-06-25T18:12:05Z</time>
      </trkpt>
      <trkpt lat="50.12963" lon="3.68515">
        <ele>115.5</ele>
        <time>2020-06-25T18:12:19Z</time>
      </trkpt>
      <trkpt lat="50.12952" lon="3.6849">
        <ele>115.5</ele>
        <time>2020-06-25T18:12:22Z</time>
      </trkpt>
      <trkpt lat="50.12917" lon="3.68385">
        <ele>115.5</ele>
        <time>2020-06-25T18:12:35Z</time>
      </trkpt>
      <trkpt lat="50.12884" lon="3.68263">
        <ele>115.98</ele>
        <time>2020-06-25T18:12:50Z</time>
      </trkpt>
      <trkpt lat="50.12882" lon="3.68254">
        <ele>115.98</ele>
        <time>2020-06-25T18:12:51Z</time>
      </trkpt>
      <trkpt lat="50.1288" lon="3.68245">
        <ele>115.98</ele>
        <time>2020-06-25T18:12:52Z</time>
      </trkpt>
      <trkpt lat="50.12864" lon="3.68178">
        <ele>115.98</ele>
        <time>2020-06-25T18:13:00Z</time>
      </trkpt>
      <trkpt lat="50.12861" lon="3.6817">
        <ele>115.98</ele>
        <time>2020-06-25T18:13:01Z</time>
      </trkpt>
      <trkpt lat="50.12821" lon="3.6808">
        <ele>115.5</ele>
        <time>2020-06-25T18:13:13Z</time>
      </trkpt>
      <trkpt lat="50.1282" lon="3.68071">
        <ele>115.5</ele>
        <time>2020-06-25T18:13:14Z</time>
      </trkpt>
      <trkpt lat="50.12821" lon="3.68062">
        <ele>115.5</ele>
        <time>2020-06-25T18:13:15Z</time>
      </trkpt>
      <trkpt lat="50.12825" lon="3.68055">
        <ele>115.5</ele>
        <time>2020-06-25T18:13:16Z</time>
      </trkpt>
      <trkpt lat="50.1283" lon="3.6805">
        <ele>115.5</ele>
        <time>2020-06-25T18:13:17Z</time>
      </trkpt>
      <trkpt lat="50.12836" lon="3.68046">
        <ele>115.5</ele>
        <time>2020-06-25T18:13:18Z</time>
      </trkpt>
      <trkpt lat="50.12865" lon="3.68027">
        <ele>116.94</ele>
        <time>2020-06-25T18:13:24Z</time>
      </trkpt>
      <trkpt lat="50.12889" lon="3.68018">
        <ele>118.38</ele>
        <time>2020-06-25T18:13:30Z</time>
      </trkpt>
      <trkpt lat="50.12892" lon="3.6802">
        <ele>118.38</ele>
        <time>2020-06-25T18:13:31Z</time>
      </trkpt>
      <trkpt lat="50.12895" lon="3.68024">
        <ele>118.38</ele>
        <time>2020-06-25T18:13:32Z</time>
      </trkpt>
      <trkpt lat="50.12897" lon="3.68028">
        <ele>119.34</ele>
        <time>2020-06-25T18:13:33Z</time>
      </trkpt>
      <trkpt lat="50.12899" lon="3.68033">
        <ele>119.34</ele>
        <time>2020-06-25T18:13:34Z</time>
      </trkpt>
      <trkpt lat="50.12899" lon="3.6804">
        <ele>119.34</ele>
        <time>2020-06-25T18:13:35Z</time>
      </trkpt>
      <trkpt lat="50.12911" lon="3.68127">
        <ele>119.34</ele>
        <time>2020-06-25T18:13:48Z</time>
      </trkpt>
      <trkpt lat="50.12913" lon="3.68133">
        <ele>119.34</ele>
        <time>2020-06-25T18:13:49Z</time>
      </trkpt>
      <trkpt lat="50.12953" lon="3.68253">
        <ele>120.3</ele>
        <time>2020-06-25T18:14:08Z</time>
      </trkpt>
      <trkpt lat="50.12963" lon="3.68283">
        <ele>120.3</ele>
        <time>2020-06-25T18:14:13Z</time>
      </trkpt>
      <trkpt lat="50.12963" lon="3.68291">
        <ele>120.3</ele>
        <time>2020-06-25T18:14:14Z</time>
      </trkpt>
      <trkpt lat="50.12962" lon="3.68298">
        <ele>120.3</ele>
        <time>2020-06-25T18:14:15Z</time>
      </trkpt>
      <trkpt lat="50.12959" lon="3.68305">
        <ele>120.3</ele>
        <time>2020-06-25T18:14:16Z</time>
      </trkpt>
      <trkpt lat="50.12956" lon="3.68309">
        <ele>120.3</ele>
        <time>2020-06-25T18:14:17Z</time>
      </trkpt>
      <trkpt lat="50.12951" lon="3.68313">
        <ele>120.78</ele>
        <time>2020-06-25T18:14:18Z</time>
      </trkpt>
      <trkpt lat="50.12946" lon="3.68315">
        <ele>120.78</ele>
        <time>2020-06-25T18:14:19Z</time>
      </trkpt>
      <trkpt lat="50.1294" lon="3.68317">
        <ele>120.78</ele>
        <time>2020-06-25T18:14:20Z</time>
      </trkpt>
      <trkpt lat="50.12935" lon="3.68318">
        <ele>121.74</ele>
        <time>2020-06-25T18:14:21Z</time>
      </trkpt>
      <trkpt lat="50.12873" lon="3.68367">
        <ele>123.67</ele>
        <time>2020-06-25T18:14:35Z</time>
      </trkpt>
      <trkpt lat="50.12857" lon="3.68395">
        <ele>122.22</ele>
        <time>2020-06-25T18:14:39Z</time>
      </trkpt>
      <trkpt lat="50.12842" lon="3.68432">
        <ele>121.26</ele>
        <time>2020-06-25T18:14:43Z</time>
      </trkpt>
      <trkpt lat="50.12839" lon="3.68442">
        <ele>120.3</ele>
        <time>2020-06-25T18:14:44Z</time>
      </trkpt>
      <trkpt lat="50.12823" lon="3.68516">
        <ele>116.94</ele>
        <time>2020-06-25T18:14:50Z</time>
      </trkpt>
      <trkpt lat="50.12798" lon="3.68612">
        <ele>114.05</ele>
        <time>2020-06-25T18:14:58Z</time>
      </trkpt>
      <trkpt lat="50.12793" lon="3.68616">
        <ele>113.57</ele>
        <time>2020-06-25T18:14:59Z</time>
      </trkpt>
      <trkpt lat="50.12786" lon="3.68614">
        <ele>113.57</ele>
        <time>2020-06-25T18:15:00Z</time>
      </trkpt>
      <trkpt lat="50.12781" lon="3.68609">
        <ele>113.57</ele>
        <time>2020-06-25T18:15:01Z</time>
      </trkpt>
      <trkpt lat="50.12777" lon="3.68601">
        <ele>113.57</ele>
        <time>2020-06-25T18:15:02Z</time>
      </trkpt>
      <trkpt lat="50.12773" lon="3.68592">
        <ele>113.57</ele>
        <time>2020-06-25T18:15:03Z</time>
      </trkpt>
      <trkpt lat="50.12764" lon="3.68574">
        <ele>113.57</ele>
        <time>2020-06-25T18:15:05Z</time>
      </trkpt>
      <trkpt lat="50.1276" lon="3.68566">
        <ele>113.57</ele>
        <time>2020-06-25T18:15:06Z</time>
      </trkpt>
      <trkpt lat="50.12738" lon="3.68523">
        <ele>113.09</ele>
        <time>2020-06-25T18:15:11Z</time>
      </trkpt>
      <trkpt lat="50.12737" lon="3.68514">
        <ele>113.09</ele>
        <time>2020-06-25T18:15:12Z</time>
      </trkpt>
      <trkpt lat="50.12738" lon="3.68503">
        <ele>113.09</ele>
        <time>2020-06-25T18:15:13Z</time>
      </trkpt>
      <trkpt lat="50.12742" lon="3.68495">
        <ele>113.09</ele>
        <time>2020-06-25T18:15:14Z</time>
      </trkpt>
      <trkpt lat="50.12747" lon="3.6849">
        <ele>113.09</ele>
        <time>2020-06-25T18:15:15Z</time>
      </trkpt>
      <trkpt lat="50.12754" lon="3.68486">
        <ele>113.09</ele>
        <time>2020-06-25T18:15:16Z</time>
      </trkpt>
      <trkpt lat="50.12767" lon="3.68477">
        <ele>113.09</ele>
        <time>2020-06-25T18:15:18Z</time>
      </trkpt>
      <trkpt lat="50.12791" lon="3.68457">
        <ele>113.57</ele>
        <time>2020-06-25T18:15:22Z</time>
      </trkpt>
      <trkpt lat="50.12796" lon="3.68451">
        <ele>114.53</ele>
        <time>2020-06-25T18:15:23Z</time>
      </trkpt>
      <trkpt lat="50.12799" lon="3.68443">
        <ele>114.53</ele>
        <time>2020-06-25T18:15:24Z</time>
      </trkpt>
      <trkpt lat="50.12799" lon="3.68432">
        <ele>114.53</ele>
        <time>2020-06-25T18:15:25Z</time>
      </trkpt>
      <trkpt lat="50.12797" lon="3.68422">
        <ele>114.53</ele>
        <time>2020-06-25T18:15:26Z</time>
      </trkpt>
      <trkpt lat="50.12794" lon="3.68412">
        <ele>115.01</ele>
        <time>2020-06-25T18:15:27Z</time>
      </trkpt>
      <trkpt lat="50.1279" lon="3.68402">
        <ele>115.01</ele>
        <time>2020-06-25T18:15:28Z</time>
      </trkpt>
      <trkpt lat="50.12765" lon="3.68338">
        <ele>115.01</ele>
        <time>2020-06-25T18:15:34Z</time>
      </trkpt>
      <trkpt lat="50.12717" lon="3.68192">
        <ele>114.05</ele>
        <time>2020-06-25T18:15:46Z</time>
      </trkpt>
      <trkpt lat="50.12637" lon="3.68021">
        <ele>113.09</ele>
        <time>2020-06-25T18:16:02Z</time>
      </trkpt>
      <trkpt lat="50.12584" lon="3.67922">
        <ele>113.57</ele>
        <time>2020-06-25T18:16:13Z</time>
      </trkpt>
      <trkpt lat="50.12552" lon="3.67891">
        <ele>113.57</ele>
        <time>2020-06-25T18:16:19Z</time>
      </trkpt>
      <trkpt lat="50.12514" lon="3.67855">
        <ele>113.57</ele>
        <time>2020-06-25T18:16:30Z</time>
      </trkpt>
      <trkpt lat="50.12484" lon="3.6782">
        <ele>114.05</ele>
        <time>2020-06-25T18:16:42Z</time>
      </trkpt>
      <trkpt lat="50.12479" lon="3.67814">
        <ele>114.05</ele>
        <time>2020-06-25T18:16:45Z</time>
      </trkpt>
      <trkpt lat="50.12464" lon="3.67812">
        <ele>113.57</ele>
        <time>2020-06-25T18:16:54Z</time>
      </trkpt>
      <trkpt lat="50.12463" lon="3.67813">
        <ele>113.57</ele>
        <time>2020-06-25T18:16:55Z</time>
      </trkpt>
      <trkpt lat="50.12461" lon="3.67814">
        <ele>113.09</ele>
        <time>2020-06-25T18:16:56Z</time>
      </trkpt>
      <trkpt lat="50.1246" lon="3.67815">
        <ele>113.09</ele>
        <time>2020-06-25T18:16:57Z</time>
      </trkpt>
      <trkpt lat="50.12459" lon="3.67816">
        <ele>113.09</ele>
        <time>2020-06-25T18:16:58Z</time>
      </trkpt>
      <trkpt lat="50.12457" lon="3.67817">
        <ele>113.09</ele>
        <time>2020-06-25T18:16:59Z</time>
      </trkpt>
      <trkpt lat="50.12458" lon="3.67818">
        <ele>112.61</ele>
        <time>2020-06-25T18:17:09Z</time>
      </trkpt>
      <trkpt lat="50.12458" lon="3.67821">
        <ele>113.09</ele>
        <time>2020-06-25T18:17:44Z</time>
      </trkpt>
      <trkpt lat="50.12458" lon="3.6782">
        <ele>113.57</ele>
        <time>2020-06-25T18:18:20Z</time>
      </trkpt>
      <trkpt lat="50.12459" lon="3.67819">
        <ele>114.05</ele>
        <time>2020-06-25T18:18:54Z</time>
      </trkpt>
      <trkpt lat="50.12459" lon="3.6782">
        <ele>114.53</ele>
        <time>2020-06-25T18:19:26Z</time>
      </trkpt>
      <trkpt lat="50.1246" lon="3.67819">
        <ele>115.01</ele>
        <time>2020-06-25T18:20:04Z</time>
      </trkpt>
      <trkpt lat="50.12458" lon="3.67819">
        <ele>115.01</ele>
        <time>2020-06-25T18:20:17Z</time>
      </trkpt>
      <trkpt lat="50.12456" lon="3.67819">
        <ele>115.98</ele>
        <time>2020-06-25T18:20:49Z</time>
      </trkpt>
    </trkseg>
  </trk>
</gpx>